sensor_id;sensor_type;location;lat;lon;timestamp;P1;durP1;ratioP1;P2;durP2;ratioP2
52470;SDS011;38382;53.160;7.026;2023-03-08T00:00:14;4.63;;;2.55;;
52470;SDS011;38382;53.160;7.026;2023-03-08T00:02:42;3.70;;;2.20;;
52470;SDS011;38382;53.160;7.026;2023-03-08T00:05:08;5.72;;;2.10;;
52470;SDS011;38382;53.160;7.026;2023-03-08T00:07:34;3.53;;;2.00;;
52470;SDS011;38382;53.160;7.026;2023-03-08T00:10:01;3.65;;;1.92;;
52470;SDS011;38382;53.160;7.026;2023-03-08T00:12:27;4.10;;;2.00;;
52470;SDS011;38382;53.160;7.026;2023-03-08T00:14:53;3.30;;;2.20;;
52470;SDS011;38382;53.160;7.026;2023-03-08T00:17:18;3.92;;;2.08;;
52470;SDS011;38382;53.160;7.026;2023-03-08T00:19:44;3.50;;;2.00;;
52470;SDS011;38382;53.160;7.026;2023-03-08T00:22:10;2.85;;;1.77;;
52470;SDS011;38382;53.160;7.026;2023-03-08T00:24:36;6.38;;;2.25;;
52470;SDS011;38382;53.160;7.026;2023-03-08T00:27:02;3.22;;;1.90;;
52470;SDS011;38382;53.160;7.026;2023-03-08T00:29:28;4.55;;;2.38;;
52470;SDS011;38382;53.160;7.026;2023-03-08T00:31:55;3.88;;;1.90;;
52470;SDS011;38382;53.160;7.026;2023-03-08T00:34:21;6.05;;;2.70;;
52470;SDS011;38382;53.160;7.026;2023-03-08T00:36:46;4.75;;;2.28;;
52470;SDS011;38382;53.160;7.026;2023-03-08T00:39:12;6.55;;;2.67;;
52470;SDS011;38382;53.160;7.026;2023-03-08T00:41:40;5.25;;;2.67;;
52470;SDS011;38382;53.160;7.026;2023-03-08T00:44:06;4.53;;;2.33;;
52470;SDS011;38382;53.160;7.026;2023-03-08T00:46:32;5.40;;;2.40;;
52470;SDS011;38382;53.160;7.026;2023-03-08T00:48:58;6.35;;;2.22;;
52470;SDS011;38382;53.160;7.026;2023-03-08T00:51:23;5.10;;;2.58;;
52470;SDS011;38382;53.160;7.026;2023-03-08T00:53:50;10.05;;;2.38;;
52470;SDS011;38382;53.160;7.026;2023-03-08T00:56:16;3.63;;;2.20;;
52470;SDS011;38382;53.160;7.026;2023-03-08T00:58:41;4.63;;;2.45;;
52470;SDS011;38382;53.160;7.026;2023-03-08T01:01:08;6.70;;;2.60;;
52470;SDS011;38382;53.160;7.026;2023-03-08T01:03:44;6.07;;;2.70;;
52470;SDS011;38382;53.160;7.026;2023-03-08T01:06:10;7.25;;;2.90;;
52470;SDS011;38382;53.160;7.026;2023-03-08T01:08:38;8.38;;;2.40;;
52470;SDS011;38382;53.160;7.026;2023-03-08T01:11:06;7.05;;;3.35;;
52470;SDS011;38382;53.160;7.026;2023-03-08T01:13:38;5.15;;;2.35;;
52470;SDS011;38382;53.160;7.026;2023-03-08T01:16:04;8.88;;;2.80;;
52470;SDS011;38382;53.160;7.026;2023-03-08T01:18:30;7.32;;;2.60;;
52470;SDS011;38382;53.160;7.026;2023-03-08T01:20:56;4.88;;;2.35;;
52470;SDS011;38382;53.160;7.026;2023-03-08T01:23:23;5.85;;;2.30;;
52470;SDS011;38382;53.160;7.026;2023-03-08T01:25:56;5.50;;;2.42;;
52470;SDS011;38382;53.160;7.026;2023-03-08T01:28:41;6.18;;;2.95;;
52470;SDS011;38382;53.160;7.026;2023-03-08T01:31:36;6.95;;;2.72;;
52470;SDS011;38382;53.160;7.026;2023-03-08T01:34:02;7.65;;;2.67;;
52470;SDS011;38382;53.160;7.026;2023-03-08T01:36:37;4.80;;;2.50;;
52470;SDS011;38382;53.160;7.026;2023-03-08T01:39:23;5.28;;;2.75;;
52470;SDS011;38382;53.160;7.026;2023-03-08T01:41:48;4.20;;;2.33;;
52470;SDS011;38382;53.160;7.026;2023-03-08T01:44:15;4.47;;;2.42;;
52470;SDS011;38382;53.160;7.026;2023-03-08T01:46:42;4.88;;;3.40;;
52470;SDS011;38382;53.160;7.026;2023-03-08T01:49:24;5.10;;;2.45;;
52470;SDS011;38382;53.160;7.026;2023-03-08T01:52:06;4.47;;;2.17;;
52470;SDS011;38382;53.160;7.026;2023-03-08T01:54:37;4.50;;;2.22;;
52470;SDS011;38382;53.160;7.026;2023-03-08T01:57:14;5.88;;;2.58;;
52470;SDS011;38382;53.160;7.026;2023-03-08T01:59:47;4.35;;;2.50;;
52470;SDS011;38382;53.160;7.026;2023-03-08T02:02:16;5.07;;;2.20;;
52470;SDS011;38382;53.160;7.026;2023-03-08T02:04:46;6.80;;;2.30;;
52470;SDS011;38382;53.160;7.026;2023-03-08T02:07:12;4.85;;;2.28;;
52470;SDS011;38382;53.160;7.026;2023-03-08T02:09:37;4.80;;;2.20;;
52470;SDS011;38382;53.160;7.026;2023-03-08T02:12:03;5.05;;;2.30;;
52470;SDS011;38382;53.160;7.026;2023-03-08T02:14:34;7.13;;;2.50;;
52470;SDS011;38382;53.160;7.026;2023-03-08T02:17:00;4.60;;;2.20;;
52470;SDS011;38382;53.160;7.026;2023-03-08T02:19:28;3.92;;;2.10;;
52470;SDS011;38382;53.160;7.026;2023-03-08T02:22:06;3.25;;;2.00;;
52470;SDS011;38382;53.160;7.026;2023-03-08T02:24:33;3.55;;;2.08;;
52470;SDS011;38382;53.160;7.026;2023-03-08T02:27:00;4.90;;;2.65;;
52470;SDS011;38382;53.160;7.026;2023-03-08T02:29:30;6.13;;;2.47;;
52470;SDS011;38382;53.160;7.026;2023-03-08T02:31:56;3.90;;;2.15;;
52470;SDS011;38382;53.160;7.026;2023-03-08T02:34:21;4.20;;;2.28;;
52470;SDS011;38382;53.160;7.026;2023-03-08T02:36:47;4.53;;;2.15;;
52470;SDS011;38382;53.160;7.026;2023-03-08T02:39:13;4.10;;;2.22;;
52470;SDS011;38382;53.160;7.026;2023-03-08T02:41:39;4.72;;;2.13;;
52470;SDS011;38382;53.160;7.026;2023-03-08T02:44:04;4.85;;;2.40;;
52470;SDS011;38382;53.160;7.026;2023-03-08T02:46:30;5.07;;;2.42;;
52470;SDS011;38382;53.160;7.026;2023-03-08T02:48:56;3.40;;;2.00;;
52470;SDS011;38382;53.160;7.026;2023-03-08T02:51:21;5.13;;;2.60;;
52470;SDS011;38382;53.160;7.026;2023-03-08T02:53:47;6.78;;;2.20;;
52470;SDS011;38382;53.160;7.026;2023-03-08T02:56:13;6.35;;;2.30;;
52470;SDS011;38382;53.160;7.026;2023-03-08T02:58:38;8.68;;;2.20;;
52470;SDS011;38382;53.160;7.026;2023-03-08T03:01:09;3.83;;;2.30;;
52470;SDS011;38382;53.160;7.026;2023-03-08T03:03:38;3.60;;;2.30;;
52470;SDS011;38382;53.160;7.026;2023-03-08T03:06:11;5.15;;;2.10;;
52470;SDS011;38382;53.160;7.026;2023-03-08T03:08:38;6.00;;;2.15;;
52470;SDS011;38382;53.160;7.026;2023-03-08T03:11:38;3.45;;;2.25;;
52470;SDS011;38382;53.160;7.026;2023-03-08T03:13:57;5.03;;;2.33;;
52470;SDS011;38382;53.160;7.026;2023-03-08T03:16:24;5.30;;;2.40;;
52470;SDS011;38382;53.160;7.026;2023-03-08T03:18:52;4.53;;;2.33;;
52470;SDS011;38382;53.160;7.026;2023-03-08T03:21:19;3.63;;;2.40;;
52470;SDS011;38382;53.160;7.026;2023-03-08T03:23:45;4.53;;;2.20;;
52470;SDS011;38382;53.160;7.026;2023-03-08T03:26:13;3.70;;;2.05;;
52470;SDS011;38382;53.160;7.026;2023-03-08T03:28:41;5.85;;;2.13;;
52470;SDS011;38382;53.160;7.026;2023-03-08T03:31:12;6.65;;;2.70;;
52470;SDS011;38382;53.160;7.026;2023-03-08T03:33:43;5.25;;;3.10;;
52470;SDS011;38382;53.160;7.026;2023-03-08T03:36:11;7.18;;;2.63;;
52470;SDS011;38382;53.160;7.026;2023-03-08T03:38:38;3.30;;;2.40;;
52470;SDS011;38382;53.160;7.026;2023-03-08T03:41:05;5.25;;;2.60;;
52470;SDS011;38382;53.160;7.026;2023-03-08T03:43:32;4.05;;;2.45;;
52470;SDS011;38382;53.160;7.026;2023-03-08T03:45:59;4.00;;;2.50;;
52470;SDS011;38382;53.160;7.026;2023-03-08T03:48:26;4.45;;;2.33;;
52470;SDS011;38382;53.160;7.026;2023-03-08T03:50:56;5.25;;;2.47;;
52470;SDS011;38382;53.160;7.026;2023-03-08T03:53:24;5.83;;;2.70;;
52470;SDS011;38382;53.160;7.026;2023-03-08T03:55:51;5.55;;;2.55;;
52470;SDS011;38382;53.160;7.026;2023-03-08T03:58:16;6.10;;;2.72;;
52470;SDS011;38382;53.160;7.026;2023-03-08T04:00:42;7.70;;;3.20;;
52470;SDS011;38382;53.160;7.026;2023-03-08T04:03:08;4.47;;;2.50;;
52470;SDS011;38382;53.160;7.026;2023-03-08T04:05:34;5.65;;;2.50;;
52470;SDS011;38382;53.160;7.026;2023-03-08T04:08:00;5.10;;;2.75;;
52470;SDS011;38382;53.160;7.026;2023-03-08T04:10:25;4.93;;;2.83;;
52470;SDS011;38382;53.160;7.026;2023-03-08T04:12:51;4.68;;;2.80;;
52470;SDS011;38382;53.160;7.026;2023-03-08T04:15:17;5.68;;;3.00;;
52470;SDS011;38382;53.160;7.026;2023-03-08T04:17:43;4.90;;;3.00;;
52470;SDS011;38382;53.160;7.026;2023-03-08T04:20:09;5.03;;;2.90;;
52470;SDS011;38382;53.160;7.026;2023-03-08T04:22:35;10.52;;;3.38;;
52470;SDS011;38382;53.160;7.026;2023-03-08T04:25:01;4.40;;;2.95;;
52470;SDS011;38382;53.160;7.026;2023-03-08T04:27:27;5.35;;;3.25;;
52470;SDS011;38382;53.160;7.026;2023-03-08T04:29:53;7.05;;;3.47;;
52470;SDS011;38382;53.160;7.026;2023-03-08T04:32:19;9.45;;;3.85;;
52470;SDS011;38382;53.160;7.026;2023-03-08T04:34:45;8.38;;;3.78;;
52470;SDS011;38382;53.160;7.026;2023-03-08T04:37:10;5.75;;;3.97;;
52470;SDS011;38382;53.160;7.026;2023-03-08T04:39:37;7.38;;;4.15;;
52470;SDS011;38382;53.160;7.026;2023-03-08T04:42:03;8.50;;;3.80;;
52470;SDS011;38382;53.160;7.026;2023-03-08T04:44:29;7.68;;;4.35;;
52470;SDS011;38382;53.160;7.026;2023-03-08T04:46:54;8.13;;;4.03;;
52470;SDS011;38382;53.160;7.026;2023-03-08T04:49:20;7.38;;;4.18;;
52470;SDS011;38382;53.160;7.026;2023-03-08T04:51:47;6.65;;;3.70;;
52470;SDS011;38382;53.160;7.026;2023-03-08T04:54:13;7.25;;;3.63;;
52470;SDS011;38382;53.160;7.026;2023-03-08T04:56:38;8.23;;;4.60;;
52470;SDS011;38382;53.160;7.026;2023-03-08T04:59:04;6.47;;;3.85;;
52470;SDS011;38382;53.160;7.026;2023-03-08T05:01:30;8.55;;;4.68;;
52470;SDS011;38382;53.160;7.026;2023-03-08T05:03:56;6.75;;;4.38;;
52470;SDS011;38382;53.160;7.026;2023-03-08T05:06:22;8.27;;;4.68;;
52470;SDS011;38382;53.160;7.026;2023-03-08T05:08:49;7.78;;;4.63;;
52470;SDS011;38382;53.160;7.026;2023-03-08T05:11:22;10.68;;;4.80;;
52470;SDS011;38382;53.160;7.026;2023-03-08T05:13:52;10.10;;;4.70;;
52470;SDS011;38382;53.160;7.026;2023-03-08T05:16:19;6.20;;;4.53;;
52470;SDS011;38382;53.160;7.026;2023-03-08T05:18:45;11.02;;;4.78;;
52470;SDS011;38382;53.160;7.026;2023-03-08T05:21:13;7.13;;;4.90;;
52470;SDS011;38382;53.160;7.026;2023-03-08T05:23:42;8.13;;;5.10;;
52470;SDS011;38382;53.160;7.026;2023-03-08T05:26:10;10.38;;;5.00;;
52470;SDS011;38382;53.160;7.026;2023-03-08T05:28:37;10.27;;;5.53;;
52470;SDS011;38382;53.160;7.026;2023-03-08T05:33:34;11.32;;;5.70;;
52470;SDS011;38382;53.160;7.026;2023-03-08T05:36:01;7.22;;;4.93;;
52470;SDS011;38382;53.160;7.026;2023-03-08T05:38:27;9.35;;;5.53;;
52470;SDS011;38382;53.160;7.026;2023-03-08T05:40:53;10.93;;;6.18;;
52470;SDS011;38382;53.160;7.026;2023-03-08T05:43:19;8.63;;;5.68;;
52470;SDS011;38382;53.160;7.026;2023-03-08T05:45:55;9.77;;;5.90;;
52470;SDS011;38382;53.160;7.026;2023-03-08T05:48:24;10.20;;;5.75;;
52470;SDS011;38382;53.160;7.026;2023-03-08T05:50:50;10.50;;;6.22;;
52470;SDS011;38382;53.160;7.026;2023-03-08T05:53:16;8.88;;;6.13;;
52470;SDS011;38382;53.160;7.026;2023-03-08T05:55:42;12.38;;;6.88;;
52470;SDS011;38382;53.160;7.026;2023-03-08T05:58:08;12.90;;;7.03;;
52470;SDS011;38382;53.160;7.026;2023-03-08T06:00:33;11.35;;;6.70;;
52470;SDS011;38382;53.160;7.026;2023-03-08T06:02:59;12.95;;;6.93;;
52470;SDS011;38382;53.160;7.026;2023-03-08T06:05:28;12.73;;;7.05;;
52470;SDS011;38382;53.160;7.026;2023-03-08T06:07:55;11.15;;;6.72;;
52470;SDS011;38382;53.160;7.026;2023-03-08T06:10:20;13.80;;;7.65;;
52470;SDS011;38382;53.160;7.026;2023-03-08T06:12:46;12.45;;;8.07;;
52470;SDS011;38382;53.160;7.026;2023-03-08T06:15:12;15.63;;;8.80;;
52470;SDS011;38382;53.160;7.026;2023-03-08T06:17:38;11.20;;;7.85;;
52470;SDS011;38382;53.160;7.026;2023-03-08T06:20:05;10.65;;;7.80;;
52470;SDS011;38382;53.160;7.026;2023-03-08T06:22:32;13.82;;;7.90;;
52470;SDS011;38382;53.160;7.026;2023-03-08T06:24:58;12.25;;;8.15;;
52470;SDS011;38382;53.160;7.026;2023-03-08T06:27:23;13.00;;;8.65;;
52470;SDS011;38382;53.160;7.026;2023-03-08T06:29:49;15.10;;;8.10;;
52470;SDS011;38382;53.160;7.026;2023-03-08T06:32:15;15.32;;;8.75;;
52470;SDS011;38382;53.160;7.026;2023-03-08T06:34:41;13.23;;;8.77;;
52470;SDS011;38382;53.160;7.026;2023-03-08T06:37:07;12.13;;;8.25;;
52470;SDS011;38382;53.160;7.026;2023-03-08T06:39:33;13.68;;;8.10;;
52470;SDS011;38382;53.160;7.026;2023-03-08T06:41:59;15.38;;;8.32;;
52470;SDS011;38382;53.160;7.026;2023-03-08T06:44:28;14.60;;;9.23;;
52470;SDS011;38382;53.160;7.026;2023-03-08T06:46:54;15.27;;;9.63;;
52470;SDS011;38382;53.160;7.026;2023-03-08T06:49:20;13.98;;;8.52;;
52470;SDS011;38382;53.160;7.026;2023-03-08T06:51:46;17.27;;;9.32;;
52470;SDS011;38382;53.160;7.026;2023-03-08T06:54:12;12.95;;;8.80;;
52470;SDS011;38382;53.160;7.026;2023-03-08T06:56:42;12.23;;;8.85;;
52470;SDS011;38382;53.160;7.026;2023-03-08T06:59:09;16.60;;;9.68;;
52470;SDS011;38382;53.160;7.026;2023-03-08T07:01:39;15.02;;;9.95;;
52470;SDS011;38382;53.160;7.026;2023-03-08T07:04:05;17.80;;;10.15;;
52470;SDS011;38382;53.160;7.026;2023-03-08T07:06:31;17.50;;;10.82;;
52470;SDS011;38382;53.160;7.026;2023-03-08T07:08:57;19.27;;;11.00;;
52470;SDS011;38382;53.160;7.026;2023-03-08T07:11:23;16.10;;;10.70;;
52470;SDS011;38382;53.160;7.026;2023-03-08T07:13:50;16.48;;;10.25;;
52470;SDS011;38382;53.160;7.026;2023-03-08T07:16:16;14.52;;;9.75;;
52470;SDS011;38382;53.160;7.026;2023-03-08T07:18:42;14.35;;;10.23;;
52470;SDS011;38382;53.160;7.026;2023-03-08T07:21:08;17.27;;;10.75;;
52470;SDS011;38382;53.160;7.026;2023-03-08T07:23:35;15.80;;;10.65;;
52470;SDS011;38382;53.160;7.026;2023-03-08T07:26:07;21.63;;;11.02;;
52470;SDS011;38382;53.160;7.026;2023-03-08T07:28:34;14.50;;;10.05;;
52470;SDS011;38382;53.160;7.026;2023-03-08T07:31:00;15.90;;;10.63;;
52470;SDS011;38382;53.160;7.026;2023-03-08T07:33:25;16.35;;;11.02;;
52470;SDS011;38382;53.160;7.026;2023-03-08T07:35:51;19.30;;;11.40;;
52470;SDS011;38382;53.160;7.026;2023-03-08T07:38:17;15.45;;;11.52;;
52470;SDS011;38382;53.160;7.026;2023-03-08T07:40:43;15.45;;;10.80;;
52470;SDS011;38382;53.160;7.026;2023-03-08T07:43:12;16.05;;;10.60;;
52470;SDS011;38382;53.160;7.026;2023-03-08T07:45:38;16.42;;;10.73;;
52470;SDS011;38382;53.160;7.026;2023-03-08T07:48:04;15.98;;;11.13;;
52470;SDS011;38382;53.160;7.026;2023-03-08T07:50:30;14.30;;;10.35;;
52470;SDS011;38382;53.160;7.026;2023-03-08T07:52:57;15.27;;;10.77;;
52470;SDS011;38382;53.160;7.026;2023-03-08T07:55:25;17.48;;;10.73;;
52470;SDS011;38382;53.160;7.026;2023-03-08T07:57:52;17.13;;;10.85;;
52470;SDS011;38382;53.160;7.026;2023-03-08T08:00:18;17.85;;;10.82;;
52470;SDS011;38382;53.160;7.026;2023-03-08T08:02:44;15.05;;;10.82;;
52470;SDS011;38382;53.160;7.026;2023-03-08T08:05:11;15.25;;;10.98;;
52470;SDS011;38382;53.160;7.026;2023-03-08T08:07:36;17.35;;;10.63;;
52470;SDS011;38382;53.160;7.026;2023-03-08T08:10:02;14.63;;;10.73;;
52470;SDS011;38382;53.160;7.026;2023-03-08T08:12:28;13.25;;;10.50;;
52470;SDS011;38382;53.160;7.026;2023-03-08T08:14:54;15.80;;;10.27;;
52470;SDS011;38382;53.160;7.026;2023-03-08T08:17:20;17.30;;;11.30;;
52470;SDS011;38382;53.160;7.026;2023-03-08T08:19:46;14.13;;;10.13;;
52470;SDS011;38382;53.160;7.026;2023-03-08T08:22:13;17.30;;;10.13;;
52470;SDS011;38382;53.160;7.026;2023-03-08T08:24:39;15.45;;;10.35;;
52470;SDS011;38382;53.160;7.026;2023-03-08T08:27:04;16.52;;;11.27;;
52470;SDS011;38382;53.160;7.026;2023-03-08T08:29:30;15.60;;;10.57;;
52470;SDS011;38382;53.160;7.026;2023-03-08T08:31:56;15.18;;;9.93;;
52470;SDS011;38382;53.160;7.026;2023-03-08T08:34:22;15.25;;;9.88;;
52470;SDS011;38382;53.160;7.026;2023-03-08T08:36:48;14.45;;;9.73;;
52470;SDS011;38382;53.160;7.026;2023-03-08T08:39:14;16.65;;;10.20;;
52470;SDS011;38382;53.160;7.026;2023-03-08T08:41:40;13.15;;;9.77;;
52470;SDS011;38382;53.160;7.026;2023-03-08T08:44:05;14.75;;;9.75;;
52470;SDS011;38382;53.160;7.026;2023-03-08T08:46:31;13.40;;;9.10;;
52470;SDS011;38382;53.160;7.026;2023-03-08T08:48:59;12.35;;;9.48;;
52470;SDS011;38382;53.160;7.026;2023-03-08T08:51:26;14.85;;;10.00;;
52470;SDS011;38382;53.160;7.026;2023-03-08T08:53:55;12.20;;;8.90;;
52470;SDS011;38382;53.160;7.026;2023-03-08T08:56:22;12.32;;;9.00;;
52470;SDS011;38382;53.160;7.026;2023-03-08T08:58:49;12.80;;;9.30;;
52470;SDS011;38382;53.160;7.026;2023-03-08T09:01:16;12.00;;;9.00;;
52470;SDS011;38382;53.160;7.026;2023-03-08T09:03:44;14.55;;;9.32;;
52470;SDS011;38382;53.160;7.026;2023-03-08T09:06:12;13.68;;;8.75;;
52470;SDS011;38382;53.160;7.026;2023-03-08T09:08:38;10.73;;;7.85;;
52470;SDS011;38382;53.160;7.026;2023-03-08T09:11:06;16.25;;;9.02;;
52470;SDS011;38382;53.160;7.026;2023-03-08T09:13:33;15.13;;;8.82;;
52470;SDS011;38382;53.160;7.026;2023-03-08T09:15:59;11.43;;;8.48;;
52470;SDS011;38382;53.160;7.026;2023-03-08T09:18:25;11.10;;;7.88;;
52470;SDS011;38382;53.160;7.026;2023-03-08T09:20:51;11.98;;;8.18;;
52470;SDS011;38382;53.160;7.026;2023-03-08T09:23:17;12.07;;;8.02;;
52470;SDS011;38382;53.160;7.026;2023-03-08T09:25:43;11.77;;;7.78;;
52470;SDS011;38382;53.160;7.026;2023-03-08T09:28:10;11.02;;;7.90;;
52470;SDS011;38382;53.160;7.026;2023-03-08T09:30:36;10.43;;;8.02;;
52470;SDS011;38382;53.160;7.026;2023-03-08T09:33:02;8.10;;;6.57;;
52470;SDS011;38382;53.160;7.026;2023-03-08T09:35:28;9.98;;;6.93;;
52470;SDS011;38382;53.160;7.026;2023-03-08T09:37:57;10.52;;;7.05;;
52470;SDS011;38382;53.160;7.026;2023-03-08T09:40:25;10.68;;;7.00;;
52470;SDS011;38382;53.160;7.026;2023-03-08T09:42:52;10.55;;;6.32;;
52470;SDS011;38382;53.160;7.026;2023-03-08T09:45:26;8.80;;;6.15;;
52470;SDS011;38382;53.160;7.026;2023-03-08T09:53:10;9.30;;;7.07;;
52470;SDS011;38382;53.160;7.026;2023-03-08T09:55:40;10.48;;;6.65;;
52470;SDS011;38382;53.160;7.026;2023-03-08T09:58:19;8.90;;;6.63;;
52470;SDS011;38382;53.160;7.026;2023-03-08T10:01:05;8.77;;;6.40;;
52470;SDS011;38382;53.160;7.026;2023-03-08T10:03:55;8.38;;;6.00;;
52470;SDS011;38382;53.160;7.026;2023-03-08T10:06:48;8.55;;;5.80;;
52470;SDS011;38382;53.160;7.026;2023-03-08T10:10:32;9.23;;;6.17;;
52470;SDS011;38382;53.160;7.026;2023-03-08T10:12:49;9.23;;;6.30;;
52470;SDS011;38382;53.160;7.026;2023-03-08T10:15:17;12.27;;;6.82;;
52470;SDS011;38382;53.160;7.026;2023-03-08T10:21:00;8.52;;;6.15;;
52470;SDS011;38382;53.160;7.026;2023-03-08T10:23:28;6.90;;;5.63;;
52470;SDS011;38382;53.160;7.026;2023-03-08T10:25:57;7.53;;;5.10;;
52470;SDS011;38382;53.160;7.026;2023-03-08T10:28:25;8.30;;;5.10;;
52470;SDS011;38382;53.160;7.026;2023-03-08T10:30:58;9.32;;;4.57;;
52470;SDS011;38382;53.160;7.026;2023-03-08T10:33:32;7.10;;;5.05;;
52470;SDS011;38382;53.160;7.026;2023-03-08T10:36:01;6.50;;;4.07;;
52470;SDS011;38382;53.160;7.026;2023-03-08T10:38:41;8.30;;;5.00;;
52470;SDS011;38382;53.160;7.026;2023-03-08T10:41:12;7.13;;;4.70;;
52470;SDS011;38382;53.160;7.026;2023-03-08T10:43:48;7.45;;;4.32;;
52470;SDS011;38382;53.160;7.026;2023-03-08T10:46:19;6.65;;;4.20;;
52470;SDS011;38382;53.160;7.026;2023-03-08T10:48:47;7.55;;;4.47;;
52470;SDS011;38382;53.160;7.026;2023-03-08T10:51:20;9.50;;;4.45;;
52470;SDS011;38382;53.160;7.026;2023-03-08T10:53:54;6.25;;;3.95;;
52470;SDS011;38382;53.160;7.026;2023-03-08T10:56:25;8.63;;;4.75;;
52470;SDS011;38382;53.160;7.026;2023-03-08T10:59:46;6.63;;;4.28;;
52470;SDS011;38382;53.160;7.026;2023-03-08T11:04:48;9.45;;;4.82;;
52470;SDS011;38382;53.160;7.026;2023-03-08T11:07:26;7.40;;;4.80;;
52470;SDS011;38382;53.160;7.026;2023-03-08T11:10:03;7.05;;;4.90;;
52470;SDS011;38382;53.160;7.026;2023-03-08T11:12:42;7.40;;;4.50;;
52470;SDS011;38382;53.160;7.026;2023-03-08T11:15:13;5.47;;;4.03;;
52470;SDS011;38382;53.160;7.026;2023-03-08T11:17:40;5.93;;;4.10;;
52470;SDS011;38382;53.160;7.026;2023-03-08T11:20:35;5.10;;;3.30;;
52470;SDS011;38382;53.160;7.026;2023-03-08T11:23:20;5.95;;;3.88;;
52470;SDS011;38382;53.160;7.026;2023-03-08T11:26:00;9.27;;;3.60;;
52470;SDS011;38382;53.160;7.026;2023-03-08T11:28:39;6.37;;;3.60;;
52470;SDS011;38382;53.160;7.026;2023-03-08T11:31:27;6.13;;;4.43;;
52470;SDS011;38382;53.160;7.026;2023-03-08T11:36:56;5.50;;;3.80;;
52470;SDS011;38382;53.160;7.026;2023-03-08T11:39:32;5.53;;;3.87;;
52470;SDS011;38382;53.160;7.026;2023-03-08T11:42:24;7.28;;;3.88;;
52470;SDS011;38382;53.160;7.026;2023-03-08T11:50:52;6.40;;;4.47;;
52470;SDS011;38382;53.160;7.026;2023-03-08T11:58:57;7.13;;;4.30;;
52470;SDS011;38382;53.160;7.026;2023-03-08T12:01:34;6.43;;;3.50;;
52470;SDS011;38382;53.160;7.026;2023-03-08T12:04:16;4.65;;;3.05;;
52470;SDS011;38382;53.160;7.026;2023-03-08T12:06:45;4.88;;;3.42;;
52470;SDS011;38382;53.160;7.026;2023-03-08T12:09:23;6.68;;;3.75;;
52470;SDS011;38382;53.160;7.026;2023-03-08T12:12:38;6.40;;;3.83;;
52470;SDS011;38382;53.160;7.026;2023-03-08T12:17:39;6.25;;;4.53;;
52470;SDS011;38382;53.160;7.026;2023-03-08T12:20:12;5.75;;;3.88;;
52470;SDS011;38382;53.160;7.026;2023-03-08T12:22:53;6.78;;;4.05;;
52470;SDS011;38382;53.160;7.026;2023-03-08T12:25:33;6.82;;;4.18;;
52470;SDS011;38382;53.160;7.026;2023-03-08T12:33:47;5.68;;;3.63;;
52470;SDS011;38382;53.160;7.026;2023-03-08T12:36:13;6.30;;;4.13;;
52470;SDS011;38382;53.160;7.026;2023-03-08T12:38:39;4.50;;;3.30;;
52470;SDS011;38382;53.160;7.026;2023-03-08T12:41:20;5.25;;;3.47;;
52470;SDS011;38382;53.160;7.026;2023-03-08T12:43:57;5.67;;;3.50;;
52470;SDS011;38382;53.160;7.026;2023-03-08T12:46:42;7.63;;;4.60;;
52470;SDS011;38382;53.160;7.026;2023-03-08T12:49:26;6.18;;;4.13;;
52470;SDS011;38382;53.160;7.026;2023-03-08T12:51:55;6.57;;;3.60;;
52470;SDS011;38382;53.160;7.026;2023-03-08T12:54:22;6.50;;;4.10;;
52470;SDS011;38382;53.160;7.026;2023-03-08T12:56:49;6.68;;;3.95;;
52470;SDS011;38382;53.160;7.026;2023-03-08T13:01:43;5.15;;;3.33;;
52470;SDS011;38382;53.160;7.026;2023-03-08T13:09:32;7.53;;;3.70;;
52470;SDS011;38382;53.160;7.026;2023-03-08T13:14:37;6.28;;;3.53;;
52470;SDS011;38382;53.160;7.026;2023-03-08T13:25:45;5.13;;;3.50;;
52470;SDS011;38382;53.160;7.026;2023-03-08T13:28:16;6.18;;;3.60;;
52470;SDS011;38382;53.160;7.026;2023-03-08T13:33:31;9.65;;;4.50;;
52470;SDS011;38382;53.160;7.026;2023-03-08T13:36:02;6.82;;;4.10;;
52470;SDS011;38382;53.160;7.026;2023-03-08T13:38:41;7.90;;;4.03;;
52470;SDS011;38382;53.160;7.026;2023-03-08T13:41:07;6.82;;;3.83;;
52470;SDS011;38382;53.160;7.026;2023-03-08T13:43:33;9.25;;;3.67;;
52470;SDS011;38382;53.160;7.026;2023-03-08T13:46:04;6.10;;;3.40;;
52470;SDS011;38382;53.160;7.026;2023-03-08T13:48:41;5.68;;;3.30;;
52470;SDS011;38382;53.160;7.026;2023-03-08T13:51:08;5.72;;;3.00;;
52470;SDS011;38382;53.160;7.026;2023-03-08T13:53:41;6.55;;;3.05;;
52470;SDS011;38382;53.160;7.026;2023-03-08T13:56:07;4.95;;;3.03;;
52470;SDS011;38382;53.160;7.026;2023-03-08T13:58:50;6.13;;;3.47;;
52470;SDS011;38382;53.160;7.026;2023-03-08T14:01:19;7.50;;;3.70;;
52470;SDS011;38382;53.160;7.026;2023-03-08T14:03:47;6.10;;;3.55;;
52470;SDS011;38382;53.160;7.026;2023-03-08T14:08:42;6.50;;;3.60;;
52470;SDS011;38382;53.160;7.026;2023-03-08T14:11:18;5.22;;;3.53;;
52470;SDS011;38382;53.160;7.026;2023-03-08T14:13:54;5.32;;;2.92;;
52470;SDS011;38382;53.160;7.026;2023-03-08T14:16:23;5.72;;;3.10;;
52470;SDS011;38382;53.160;7.026;2023-03-08T14:18:56;6.40;;;3.30;;
52470;SDS011;38382;53.160;7.026;2023-03-08T14:21:25;5.00;;;2.80;;
52470;SDS011;38382;53.160;7.026;2023-03-08T14:23:56;6.50;;;3.05;;
52470;SDS011;38382;53.160;7.026;2023-03-08T14:32:05;5.57;;;2.70;;
52470;SDS011;38382;53.160;7.026;2023-03-08T14:35:02;5.50;;;3.08;;
52470;SDS011;38382;53.160;7.026;2023-03-08T14:37:41;6.95;;;3.20;;
52470;SDS011;38382;53.160;7.026;2023-03-08T14:42:58;5.85;;;2.90;;
52470;SDS011;38382;53.160;7.026;2023-03-08T14:47:56;7.00;;;2.70;;
52470;SDS011;38382;53.160;7.026;2023-03-08T14:50:49;4.93;;;2.78;;
52470;SDS011;38382;53.160;7.026;2023-03-08T14:56:01;5.93;;;2.78;;
52470;SDS011;38382;53.160;7.026;2023-03-08T15:01:00;5.40;;;2.80;;
52470;SDS011;38382;53.160;7.026;2023-03-08T15:03:27;5.72;;;2.75;;
52470;SDS011;38382;53.160;7.026;2023-03-08T15:05:54;6.45;;;3.10;;
52470;SDS011;38382;53.160;7.026;2023-03-08T15:08:20;6.07;;;2.90;;
52470;SDS011;38382;53.160;7.026;2023-03-08T15:10:47;4.13;;;2.60;;
52470;SDS011;38382;53.160;7.026;2023-03-08T15:13:14;4.35;;;2.60;;
52470;SDS011;38382;53.160;7.026;2023-03-08T15:15:41;4.70;;;2.72;;
52470;SDS011;38382;53.160;7.026;2023-03-08T15:18:08;6.10;;;3.00;;
52470;SDS011;38382;53.160;7.026;2023-03-08T15:20:35;4.03;;;2.65;;
52470;SDS011;38382;53.160;7.026;2023-03-08T15:23:05;4.55;;;2.70;;
52470;SDS011;38382;53.160;7.026;2023-03-08T15:25:33;5.93;;;2.60;;
52470;SDS011;38382;53.160;7.026;2023-03-08T15:28:01;4.43;;;2.65;;
52470;SDS011;38382;53.160;7.026;2023-03-08T15:30:28;5.03;;;2.53;;
52470;SDS011;38382;53.160;7.026;2023-03-08T15:32:55;3.90;;;2.38;;
52470;SDS011;38382;53.160;7.026;2023-03-08T15:35:22;4.90;;;2.97;;
52470;SDS011;38382;53.160;7.026;2023-03-08T15:37:49;5.40;;;3.10;;
52470;SDS011;38382;53.160;7.026;2023-03-08T15:40:16;7.70;;;3.05;;
52470;SDS011;38382;53.160;7.026;2023-03-08T15:42:46;5.78;;;2.90;;
52470;SDS011;38382;53.160;7.026;2023-03-08T15:45:13;5.15;;;2.63;;
52470;SDS011;38382;53.160;7.026;2023-03-08T15:47:39;5.28;;;2.78;;
52470;SDS011;38382;53.160;7.026;2023-03-08T15:50:09;4.65;;;3.05;;
52470;SDS011;38382;53.160;7.026;2023-03-08T15:52:45;4.55;;;2.67;;
52470;SDS011;38382;53.160;7.026;2023-03-08T15:55:12;6.95;;;3.00;;
52470;SDS011;38382;53.160;7.026;2023-03-08T15:57:38;6.40;;;2.78;;
52470;SDS011;38382;53.160;7.026;2023-03-08T16:00:04;7.00;;;2.95;;
52470;SDS011;38382;53.160;7.026;2023-03-08T16:02:35;7.23;;;3.07;;
52470;SDS011;38382;53.160;7.026;2023-03-08T16:05:05;4.18;;;2.45;;
52470;SDS011;38382;53.160;7.026;2023-03-08T16:07:33;4.65;;;2.80;;
52470;SDS011;38382;53.160;7.026;2023-03-08T16:09:59;5.93;;;2.58;;
52470;SDS011;38382;53.160;7.026;2023-03-08T16:12:26;5.75;;;2.65;;